sensor_id;sensor_type;location;lat;lon;timestamp;temperature;humidity
39655;DHT22;25336;59.944;11.010;2023-03-14T00:00:35;0.70;65.50
39655;DHT22;25336;59.944;11.010;2023-03-14T00:03:00;0.70;65.50
39655;DHT22;25336;59.944;11.010;2023-03-14T00:05:26;0.70;65.70
39655;DHT22;25336;59.944;11.010;2023-03-14T00:07:52;0.60;65.60
39655;DHT22;25336;59.944;11.010;2023-03-14T00:10:18;0.60;65.70
39655;DHT22;25336;59.944;11.010;2023-03-14T00:12:43;0.50;66.50
39655;DHT22;25336;59.944;11.010;2023-03-14T00:15:10;0.50;65.80
39655;DHT22;25336;59.944;11.010;2023-03-14T00:17:36;0.50;65.90
39655;DHT22;25336;59.944;11.010;2023-03-14T00:20:04;0.40;65.90
39655;DHT22;25336;59.944;11.010;2023-03-14T00:22:40;0.40;66.00
39655;DHT22;25336;59.944;11.010;2023-03-14T00:25:08;0.40;66.20
39655;DHT22;25336;59.944;11.010;2023-03-14T00:27:34;0.40;66.00
39655;DHT22;25336;59.944;11.010;2023-03-14T00:30:00;0.40;66.00
39655;DHT22;25336;59.944;11.010;2023-03-14T00:32:25;0.40;66.10
39655;DHT22;25336;59.944;11.010;2023-03-14T00:34:51;0.30;66.00
39655;DHT22;25336;59.944;11.010;2023-03-14T00:37:17;0.30;65.90
39655;DHT22;25336;59.944;11.010;2023-03-14T00:39:42;1.10;66.40
39655;DHT22;25336;59.944;11.010;2023-03-14T00:42:08;0.30;65.70
39655;DHT22;25336;59.944;11.010;2023-03-14T00:44:33;-0.60;64.90
39655;DHT22;25336;59.944;11.010;2023-03-14T00:46:59;0.20;65.30
39655;DHT22;25336;59.944;11.010;2023-03-14T00:49:25;0.20;65.30
39655;DHT22;25336;59.944;11.010;2023-03-14T00:51:51;0.10;65.20
39655;DHT22;25336;59.944;11.010;2023-03-14T00:54:18;0.10;65.30
39655;DHT22;25336;59.944;11.010;2023-03-14T00:56:43;1.10;66.00
39655;DHT22;25336;59.944;11.010;2023-03-14T00:59:09;1.30;66.00
39655;DHT22;25336;59.944;11.010;2023-03-14T01:01:35;-0.10;65.10
39655;DHT22;25336;59.944;11.010;2023-03-14T01:04:01;-0.10;65.20
39655;DHT22;25336;59.944;11.010;2023-03-14T01:06:28;-0.20;65.20
39655;DHT22;25336;59.944;11.010;2023-03-14T01:08:54;-0.20;65.30
39655;DHT22;25336;59.944;11.010;2023-03-14T01:11:25;-0.30;65.50
39655;DHT22;25336;59.944;11.010;2023-03-14T01:13:52;-0.30;65.60
39655;DHT22;25336;59.944;11.010;2023-03-14T01:16:19;-0.40;65.70
39655;DHT22;25336;59.944;11.010;2023-03-14T01:18:46;-0.40;65.80
39655;DHT22;25336;59.944;11.010;2023-03-14T01:21:26;-0.40;65.90
39655;DHT22;25336;59.944;11.010;2023-03-14T01:23:56;-0.50;66.20
39655;DHT22;25336;59.944;11.010;2023-03-14T01:26:23;-0.50;66.20
39655;DHT22;25336;59.944;11.010;2023-03-14T01:28:50;-0.50;66.30
39655;DHT22;25336;59.944;11.010;2023-03-14T01:31:17;-0.50;66.40
39655;DHT22;25336;59.944;11.010;2023-03-14T01:33:43;-0.50;66.50
39655;DHT22;25336;59.944;11.010;2023-03-14T01:36:10;0.00;67.00
39655;DHT22;25336;59.944;11.010;2023-03-14T01:38:37;-0.50;66.70
39655;DHT22;25336;59.944;11.010;2023-03-14T01:41:03;-0.50;66.70
39655;DHT22;25336;59.944;11.010;2023-03-14T01:43:30;0.70;67.40
39655;DHT22;25336;59.944;11.010;2023-03-14T01:51:18;-0.50;66.20
39655;DHT22;25336;59.944;11.010;2023-03-14T01:53:45;-0.60;66.10
39655;DHT22;25336;59.944;11.010;2023-03-14T01:56:13;-0.50;66.10
39655;DHT22;25336;59.944;11.010;2023-03-14T01:58:41;-0.60;66.20
39655;DHT22;25336;59.944;11.010;2023-03-14T02:01:10;-0.60;66.20
39655;DHT22;25336;59.944;11.010;2023-03-14T02:03:46;-0.60;66.40
39655;DHT22;25336;59.944;11.010;2023-03-14T02:06:14;-0.60;67.30
39655;DHT22;25336;59.944;11.010;2023-03-14T02:08:42;-0.60;66.60
39655;DHT22;25336;59.944;11.010;2023-03-14T02:11:12;-0.60;66.50
39655;DHT22;25336;59.944;11.010;2023-03-14T02:13:38;-0.60;66.60
39655;DHT22;25336;59.944;11.010;2023-03-14T02:16:04;0.30;67.20
39655;DHT22;25336;59.944;11.010;2023-03-14T02:18:30;-0.60;66.60
39655;DHT22;25336;59.944;11.010;2023-03-14T02:28:47;-0.70;66.20
39655;DHT22;25336;59.944;11.010;2023-03-14T02:31:14;-0.70;66.20
39655;DHT22;25336;59.944;11.010;2023-03-14T02:33:40;-0.70;66.10
39655;DHT22;25336;59.944;11.010;2023-03-14T02:36:09;-0.70;66.00
39655;DHT22;25336;59.944;11.010;2023-03-14T02:41:05;-0.80;65.80
39655;DHT22;25336;59.944;11.010;2023-03-14T02:43:30;-0.80;65.80
39655;DHT22;25336;59.944;11.010;2023-03-14T02:45:56;-0.90;65.70
39655;DHT22;25336;59.944;11.010;2023-03-14T02:48:51;-0.80;65.80
39655;DHT22;25336;59.944;11.010;2023-03-14T02:51:20;-0.10;66.30
39655;DHT22;25336;59.944;11.010;2023-03-14T02:53:46;-0.90;66.20
39655;DHT22;25336;59.944;11.010;2023-03-14T02:56:11;-1.00;65.10
39655;DHT22;25336;59.944;11.010;2023-03-14T02:58:37;-1.00;65.00
39655;DHT22;25336;59.944;11.010;2023-03-14T03:01:03;-1.00;65.10
39655;DHT22;25336;59.944;11.010;2023-03-14T03:03:29;-1.10;65.10
39655;DHT22;25336;59.944;11.010;2023-03-14T03:05:55;-1.10;65.20
39655;DHT22;25336;59.944;11.010;2023-03-14T03:08:23;-1.10;65.30
39655;DHT22;25336;59.944;11.010;2023-03-14T03:10:50;-1.10;65.50
39655;DHT22;25336;59.944;11.010;2023-03-14T03:13:16;-1.10;65.60
39655;DHT22;25336;59.944;11.010;2023-03-14T03:15:42;-1.10;65.50
39655;DHT22;25336;59.944;11.010;2023-03-14T03:18:08;-1.10;65.30
39655;DHT22;25336;59.944;11.010;2023-03-14T03:20:34;-1.20;65.20
39655;DHT22;25336;59.944;11.010;2023-03-14T03:23:00;-1.20;64.80
39655;DHT22;25336;59.944;11.010;2023-03-14T03:25:26;-1.20;64.60
39655;DHT22;25336;59.944;11.010;2023-03-14T03:27:51;-1.20;64.50
39655;DHT22;25336;59.944;11.010;2023-03-14T03:30:17;-1.20;65.20
39655;DHT22;25336;59.944;11.010;2023-03-14T03:32:43;-1.30;64.30
39655;DHT22;25336;59.944;11.010;2023-03-14T03:35:09;-1.30;64.40
39655;DHT22;25336;59.944;11.010;2023-03-14T03:37:35;-0.50;64.70
39655;DHT22;25336;59.944;11.010;2023-03-14T03:40:01;-1.40;64.20
39655;DHT22;25336;59.944;11.010;2023-03-14T03:42:29;-0.60;64.60
39655;DHT22;25336;59.944;11.010;2023-03-14T03:44:55;-1.50;64.10
39655;DHT22;25336;59.944;11.010;2023-03-14T03:47:21;-1.60;64.10
39655;DHT22;25336;59.944;11.010;2023-03-14T03:49:46;-1.60;64.20
39655;DHT22;25336;59.944;11.010;2023-03-14T03:52:12;-1.70;64.10
39655;DHT22;25336;59.944;11.010;2023-03-14T03:54:37;-2.30;63.80
39655;DHT22;25336;59.944;11.010;2023-03-14T03:57:03;-1.80;64.20
39655;DHT22;25336;59.944;11.010;2023-03-14T03:59:29;-1.80;64.20
39655;DHT22;25336;59.944;11.010;2023-03-14T04:01:54;-1.80;64.00
39655;DHT22;25336;59.944;11.010;2023-03-14T04:04:20;-1.90;64.00
39655;DHT22;25336;59.944;11.010;2023-03-14T04:06:45;-1.90;64.40
39655;DHT22;25336;59.944;11.010;2023-03-14T04:09:11;-1.90;65.00
39655;DHT22;25336;59.944;11.010;2023-03-14T04:11:37;-1.90;65.10
39655;DHT22;25336;59.944;11.010;2023-03-14T04:14:03;-1.90;65.20
39655;DHT22;25336;59.944;11.010;2023-03-14T04:16:30;-1.90;65.30
39655;DHT22;25336;59.944;11.010;2023-03-14T04:18:57;-1.90;65.30
39655;DHT22;25336;59.944;11.010;2023-03-14T04:21:23;-1.90;65.30
39655;DHT22;25336;59.944;11.010;2023-03-14T04:23:49;-1.90;66.20
39655;DHT22;25336;59.944;11.010;2023-03-14T04:26:15;-1.90;65.80
39655;DHT22;25336;59.944;11.010;2023-03-14T04:28:41;-1.80;66.20
39655;DHT22;25336;59.944;11.010;2023-03-14T04:31:11;-1.80;66.60
39655;DHT22;25336;59.944;11.010;2023-03-14T04:33:37;-1.70;67.00
39655;DHT22;25336;59.944;11.010;2023-03-14T04:36:04;-1.70;67.20
39655;DHT22;25336;59.944;11.010;2023-03-14T04:38:30;-1.60;67.30
39655;DHT22;25336;59.944;11.010;2023-03-14T04:40:56;-1.50;67.40
39655;DHT22;25336;59.944;11.010;2023-03-14T04:43:22;-1.50;67.50
39655;DHT22;25336;59.944;11.010;2023-03-14T04:45:47;-1.40;67.50
39655;DHT22;25336;59.944;11.010;2023-03-14T04:48:14;-1.30;67.60
39655;DHT22;25336;59.944;11.010;2023-03-14T04:50:42;-1.30;67.50
39655;DHT22;25336;59.944;11.010;2023-03-14T04:53:08;-1.20;67.20
39655;DHT22;25336;59.944;11.010;2023-03-14T04:55:33;-1.20;66.70
39655;DHT22;25336;59.944;11.010;2023-03-14T04:58:00;-1.20;66.40
39655;DHT22;25336;59.944;11.010;2023-03-14T05:00:25;-1.20;66.70
39655;DHT22;25336;59.944;11.010;2023-03-14T05:02:51;-1.20;65.70
39655;DHT22;25336;59.944;11.010;2023-03-14T05:05:16;-1.20;65.50
39655;DHT22;25336;59.944;11.010;2023-03-14T05:07:42;-1.20;65.40
39655;DHT22;25336;59.944;11.010;2023-03-14T05:10:08;-1.20;65.30
39655;DHT22;25336;59.944;11.010;2023-03-14T05:12:34;-1.20;65.30
39655;DHT22;25336;59.944;11.010;2023-03-14T05:15:00;-1.20;65.30
39655;DHT22;25336;59.944;11.010;2023-03-14T05:17:26;-1.20;65.40
39655;DHT22;25336;59.944;11.010;2023-03-14T05:19:51;-1.30;65.50
39655;DHT22;25336;59.944;11.010;2023-03-14T05:22:17;-1.30;65.60
39655;DHT22;25336;59.944;11.010;2023-03-14T05:24:42;-1.30;65.80
39655;DHT22;25336;59.944;11.010;2023-03-14T05:27:08;-1.20;66.00
39655;DHT22;25336;59.944;11.010;2023-03-14T05:29:34;-1.20;66.10
39655;DHT22;25336;59.944;11.010;2023-03-14T05:31:59;-1.20;66.20
39655;DHT22;25336;59.944;11.010;2023-03-14T05:34:25;-1.20;66.10
39655;DHT22;25336;59.944;11.010;2023-03-14T05:36:50;-1.20;66.10
39655;DHT22;25336;59.944;11.010;2023-03-14T05:39:16;-1.10;66.10
39655;DHT22;25336;59.944;11.010;2023-03-14T05:41:41;-1.10;66.00
39655;DHT22;25336;59.944;11.010;2023-03-14T05:44:07;-1.10;65.80
39655;DHT22;25336;59.944;11.010;2023-03-14T05:46:33;-1.10;65.80
39655;DHT22;25336;59.944;11.010;2023-03-14T05:48:59;-1.10;65.70
39655;DHT22;25336;59.944;11.010;2023-03-14T05:51:24;-1.10;65.90
39655;DHT22;25336;59.944;11.010;2023-03-14T05:53:50;-1.10;65.90
39655;DHT22;25336;59.944;11.010;2023-03-14T05:56:16;-1.10;66.00
39655;DHT22;25336;59.944;11.010;2023-03-14T05:58:41;-1.10;65.90
39655;DHT22;25336;59.944;11.010;2023-03-14T06:01:07;-1.00;66.00
39655;DHT22;25336;59.944;11.010;2023-03-14T06:03:33;-1.00;66.00
39655;DHT22;25336;59.944;11.010;2023-03-14T06:05:59;-1.00;66.00
39655;DHT22;25336;59.944;11.010;2023-03-14T06:08:25;-1.00;66.10
39655;DHT22;25336;59.944;11.010;2023-03-14T06:10:51;-1.00;66.20
39655;DHT22;25336;59.944;11.010;2023-03-14T06:13:17;-0.90;66.40
39655;DHT22;25336;59.944;11.010;2023-03-14T06:15:43;-0.90;66.30
39655;DHT22;25336;59.944;11.010;2023-03-14T06:18:09;-0.90;66.30
39655;DHT22;25336;59.944;11.010;2023-03-14T06:20:38;-0.80;66.40
39655;DHT22;25336;59.944;11.010;2023-03-14T06:23:07;-0.80;66.50
39655;DHT22;25336;59.944;11.010;2023-03-14T06:25:33;-0.80;66.50
39655;DHT22;25336;59.944;11.010;2023-03-14T06:27:59;-0.70;66.60
39655;DHT22;25336;59.944;11.010;2023-03-14T06:30:24;-0.70;66.70
39655;DHT22;25336;59.944;11.010;2023-03-14T06:32:50;-0.60;66.70
39655;DHT22;25336;59.944;11.010;2023-03-14T06:35:16;-0.60;66.80
39655;DHT22;25336;59.944;11.010;2023-03-14T06:37:42;0.60;67.70
39655;DHT22;25336;59.944;11.010;2023-03-14T06:40:09;-0.50;67.10
39655;DHT22;25336;59.944;11.010;2023-03-14T06:42:35;-0.50;67.10
39655;DHT22;25336;59.944;11.010;2023-03-14T06:45:00;-0.40;67.00
39655;DHT22;25336;59.944;11.010;2023-03-14T06:47:26;-0.40;66.90
39655;DHT22;25336;59.944;11.010;2023-03-14T06:49:51;-0.60;66.70
39655;DHT22;25336;59.944;11.010;2023-03-14T06:52:17;-0.30;66.90
39655;DHT22;25336;59.944;11.010;2023-03-14T06:54:43;-0.20;66.70
39655;DHT22;25336;59.944;11.010;2023-03-14T06:57:08;-0.20;66.50
39655;DHT22;25336;59.944;11.010;2023-03-14T06:59:34;-0.20;66.60
39655;DHT22;25336;59.944;11.010;2023-03-14T07:01:59;-0.60;66.30
39655;DHT22;25336;59.944;11.010;2023-03-14T07:04:25;-0.10;66.90
39655;DHT22;25336;59.944;11.010;2023-03-14T07:06:50;0.00;67.00
39655;DHT22;25336;59.944;11.010;2023-03-14T07:09:16;0.00;67.00
39655;DHT22;25336;59.944;11.010;2023-03-14T07:11:45;0.10;66.80
39655;DHT22;25336;59.944;11.010;2023-03-14T07:14:10;0.10;66.90
39655;DHT22;25336;59.944;11.010;2023-03-14T07:16:36;0.20;67.10
39655;DHT22;25336;59.944;11.010;2023-03-14T07:19:02;0.30;67.40
39655;DHT22;25336;59.944;11.010;2023-03-14T07:21:28;0.30;67.40
39655;DHT22;25336;59.944;11.010;2023-03-14T07:23:54;0.40;67.20
39655;DHT22;25336;59.944;11.010;2023-03-14T07:26:20;0.50;67.20
39655;DHT22;25336;59.944;11.010;2023-03-14T07:28:45;0.60;67.00
39655;DHT22;25336;59.944;11.010;2023-03-14T07:31:11;0.60;66.90
39655;DHT22;25336;59.944;11.010;2023-03-14T07:33:37;0.10;67.40
39655;DHT22;25336;59.944;11.010;2023-03-14T07:36:03;0.80;67.10
39655;DHT22;25336;59.944;11.010;2023-03-14T07:38:29;0.90;66.90
39655;DHT22;25336;59.944;11.010;2023-03-14T07:41:05;0.90;66.70
39655;DHT22;25336;59.944;11.010;2023-03-14T07:43:32;1.00;66.60
39655;DHT22;25336;59.944;11.010;2023-03-14T07:45:58;1.10;66.50
39655;DHT22;25336;59.944;11.010;2023-03-14T07:48:24;1.20;66.60
39655;DHT22;25336;59.944;11.010;2023-03-14T07:50:54;1.30;66.40
39655;DHT22;25336;59.944;11.010;2023-03-14T07:53:20;1.30;66.20
39655;DHT22;25336;59.944;11.010;2023-03-14T07:55:46;1.40;66.10
39655;DHT22;25336;59.944;11.010;2023-03-14T07:58:13;2.70;66.90
39655;DHT22;25336;59.944;11.010;2023-03-14T08:00:38;1.60;65.90
39655;DHT22;25336;59.944;11.010;2023-03-14T08:03:04;1.60;65.80
39655;DHT22;25336;59.944;11.010;2023-03-14T08:05:30;1.70;65.70
39655;DHT22;25336;59.944;11.010;2023-03-14T08:07:55;1.80;65.70
39655;DHT22;25336;59.944;11.010;2023-03-14T08:10:21;1.90;65.60
39655;DHT22;25336;59.944;11.010;2023-03-14T08:12:58;2.90;66.10
39655;DHT22;25336;59.944;11.010;2023-03-14T08:15:24;2.00;65.30
39655;DHT22;25336;59.944;11.010;2023-03-14T08:17:50;1.80;65.00
39655;DHT22;25336;59.944;11.010;2023-03-14T08:20:22;2.20;65.10
39655;DHT22;25336;59.944;11.010;2023-03-14T08:22:48;2.30;64.90
39655;DHT22;25336;59.944;11.010;2023-03-14T08:25:14;2.40;64.70
39655;DHT22;25336;59.944;11.010;2023-03-14T08:27:40;2.50;64.70
39655;DHT22;25336;59.944;11.010;2023-03-14T08:30:09;2.60;64.70
39655;DHT22;25336;59.944;11.010;2023-03-14T08:32:35;2.70;64.60
39655;DHT22;25336;59.944;11.010;2023-03-14T08:35:01;2.80;64.40
39655;DHT22;25336;59.944;11.010;2023-03-14T08:37:26;2.90;64.10
39655;DHT22;25336;59.944;11.010;2023-03-14T08:39:52;2.20;63.30
39655;DHT22;25336;59.944;11.010;2023-03-14T08:42:18;3.20;63.50
39655;DHT22;25336;59.944;11.010;2023-03-14T08:44:44;3.30;63.10
39655;DHT22;25336;59.944;11.010;2023-03-14T08:47:10;3.40;63.00
39655;DHT22;25336;59.944;11.010;2023-03-14T08:49:36;3.50;62.80
39655;DHT22;25336;59.944;11.010;2023-03-14T08:52:02;3.60;62.70
39655;DHT22;25336;59.944;11.010;2023-03-14T08:54:28;3.60;62.50
39655;DHT22;25336;59.944;11.010;2023-03-14T08:56:54;3.80;62.30
39655;DHT22;25336;59.944;11.010;2023-03-14T08:59:19;4.80;62.60
39655;DHT22;25336;59.944;11.010;2023-03-14T09:01:45;4.00;61.70
39655;DHT22;25336;59.944;11.010;2023-03-14T09:04:10;4.10;61.70
39655;DHT22;25336;59.944;11.010;2023-03-14T09:06:36;4.20;61.40
39655;DHT22;25336;59.944;11.010;2023-03-14T09:09:02;4.30;61.00
39655;DHT22;25336;59.944;11.010;2023-03-14T09:11:28;4.40;60.60
39655;DHT22;25336;59.944;11.010;2023-03-14T09:13:53;4.40;60.20
39655;DHT22;25336;59.944;11.010;2023-03-14T09:16:19;4.50;60.40
39655;DHT22;25336;59.944;11.010;2023-03-14T09:18:45;4.60;60.00
39655;DHT22;25336;59.944;11.010;2023-03-14T09:21:10;4.60;59.70
39655;DHT22;25336;59.944;11.010;2023-03-14T09:23:36;4.70;59.90
39655;DHT22;25336;59.944;11.010;2023-03-14T09:26:02;4.80;58.40
39655;DHT22;25336;59.944;11.010;2023-03-14T09:28:27;4.80;58.70
39655;DHT22;25336;59.944;11.010;2023-03-14T09:30:53;4.80;58.10
39655;DHT22;25336;59.944;11.010;2023-03-14T09:33:19;4.90;58.30
39655;DHT22;25336;59.944;11.010;2023-03-14T09:35:45;4.90;57.80
39655;DHT22;25336;59.944;11.010;2023-03-14T09:38:10;4.90;57.50
39655;DHT22;25336;59.944;11.010;2023-03-14T09:40:37;4.90;57.70
39655;DHT22;25336;59.944;11.010;2023-03-14T09:43:03;5.00;57.80
39655;DHT22;25336;59.944;11.010;2023-03-14T09:45:33;5.00;57.50
39655;DHT22;25336;59.944;11.010;2023-03-14T09:48:01;5.00;56.80
39655;DHT22;25336;59.944;11.010;2023-03-14T09:50:38;5.00;56.70
39655;DHT22;25336;59.944;11.010;2023-03-14T09:53:12;4.90;55.80
39655;DHT22;25336;59.944;11.010;2023-03-14T09:55:40;5.00;55.20
39655;DHT22;25336;59.944;11.010;2023-03-14T09:58:13;5.80;56.40
39655;DHT22;25336;59.944;11.010;2023-03-14T10:00:39;5.00;56.00
39655;DHT22;25336;59.944;11.010;2023-03-14T10:05:37;5.10;55.00
39655;DHT22;25336;59.944;11.010;2023-03-14T10:08:03;5.00;55.30
39655;DHT22;25336;59.944;11.010;2023-03-14T10:10:29;5.10;55.20
39655;DHT22;25336;59.944;11.010;2023-03-14T10:13:12;5.70;55.20
39655;DHT22;25336;59.944;11.010;2023-03-14T10:15:39;5.10;55.00
39655;DHT22;25336;59.944;11.010;2023-03-14T10:18:12;5.10;54.90
39655;DHT22;25336;59.944;11.010;2023-03-14T10:20:46;5.20;55.10
39655;DHT22;25336;59.944;11.010;2023-03-14T10:25:59;5.20;55.00
39655;DHT22;25336;59.944;11.010;2023-03-14T10:28:26;5.90;54.50
39655;DHT22;25336;59.944;11.010;2023-03-14T10:30:53;5.30;55.00
39655;DHT22;25336;59.944;11.010;2023-03-14T10:33:24;5.40;54.90
39655;DHT22;25336;59.944;11.010;2023-03-14T10:38:35;5.50;53.70
39655;DHT22;25336;59.944;11.010;2023-03-14T10:41:01;5.50;54.40
39655;DHT22;25336;59.944;11.010;2023-03-14T10:43:37;5.60;54.50
39655;DHT22;25336;59.944;11.010;2023-03-14T10:46:15;5.70;54.10
39655;DHT22;25336;59.944;11.010;2023-03-14T10:48:41;5.60;53.50
39655;DHT22;25336;59.944;11.010;2023-03-14T10:51:10;5.70;53.20
39655;DHT22;25336;59.944;11.010;2023-03-14T10:53:44;6.70;53.70
39655;DHT22;25336;59.944;11.010;2023-03-14T10:56:34;5.70;53.50
39655;DHT22;25336;59.944;11.010;2023-03-14T10:59:01;5.70;53.80
39655;DHT22;25336;59.944;11.010;2023-03-14T11:13:02;5.60;52.20
39655;DHT22;25336;59.944;11.010;2023-03-14T11:15:35;5.60;52.60
39655;DHT22;25336;59.944;11.010;2023-03-14T11:18:23;5.70;53.10
39655;DHT22;25336;59.944;11.010;2023-03-14T11:20:59;5.70;52.90
39655;DHT22;25336;59.944;11.010;2023-03-14T11:23:37;5.70;53.30
39655;DHT22;25336;59.944;11.010;2023-03-14T11:28:57;5.80;53.20
39655;DHT22;25336;59.944;11.010;2023-03-14T11:31:28;5.80;52.60
39655;DHT22;25336;59.944;11.010;2023-03-14T11:36:36;5.80;53.50
39655;DHT22;25336;59.944;11.010;2023-03-14T11:39:03;6.20;53.40
39655;DHT22;25336;59.944;11.010;2023-03-14T11:41:39;5.90;52.70
39655;DHT22;25336;59.944;11.010;2023-03-14T11:44:25;5.90;52.30
39655;DHT22;25336;59.944;11.010;2023-03-14T11:49:54;5.90;52.10
39655;DHT22;25336;59.944;11.010;2023-03-14T11:52:34;5.90;52.20
39655;DHT22;25336;59.944;11.010;2023-03-14T11:55:13;5.90;52.00
39655;DHT22;25336;59.944;11.010;2023-03-14T11:57:42;6.00;51.90
39655;DHT22;25336;59.944;11.010;2023-03-14T12:00:14;5.90;52.20
39655;DHT22;25336;59.944;11.010;2023-03-14T12:03:04;6.00;51.70
39655;DHT22;25336;59.944;11.010;2023-03-14T12:10:46;5.90;51.30
39655;DHT22;25336;59.944;11.010;2023-03-14T12:13:14;5.90;51.20
39655;DHT22;25336;59.944;11.010;2023-03-14T12:15:59;5.90;51.30
39655;DHT22;25336;59.944;11.010;2023-03-14T12:18:36;5.90;50.50
39655;DHT22;25336;59.944;11.010;2023-03-14T12:21:09;5.90;50.90
39655;DHT22;25336;59.944;11.010;2023-03-14T12:23:52;5.80;50.80
39655;DHT22;25336;59.944;11.010;2023-03-14T12:26:21;5.80;50.60
39655;DHT22;25336;59.944;11.010;2023-03-14T12:29:09;5.80;50.80
39655;DHT22;25336;59.944;11.010;2023-03-14T12:31:49;5.80;50.50
39655;DHT22;25336;59.944;11.010;2023-03-14T12:34:33;5.80;51.10
39655;DHT22;25336;59.944;11.010;2023-03-14T12:37:04;5.70;50.60
39655;DHT22;25336;59.944;11.010;2023-03-14T12:47:55;5.60;50.60
39655;DHT22;25336;59.944;11.010;2023-03-14T12:50:26;5.60;51.20
39655;DHT22;25336;59.944;11.010;2023-03-14T12:55:54;5.60;51.00
39655;DHT22;25336;59.944;11.010;2023-03-14T12:58:39;5.60;50.70
39655;DHT22;25336;59.944;11.010;2023-03-14T13:01:16;5.60;50.70
39655;DHT22;25336;59.944;11.010;2023-03-14T13:03:54;5.60;51.10
39655;DHT22;25336;59.944;11.010;2023-03-14T13:06:50;5.60;51.10
39655;DHT22;25336;59.944;11.010;2023-03-14T13:12:27;5.60;50.30
39655;DHT22;25336;59.944;11.010;2023-03-14T13:14:58;5.60;50.60
39655;DHT22;25336;59.944;11.010;2023-03-14T13:17:32;5.60;50.60
39655;DHT22;25336;59.944;11.010;2023-03-14T13:20:02;5.60;50.60
39655;DHT22;25336;59.944;11.010;2023-03-14T13:22:33;5.60;50.10
39655;DHT22;25336;59.944;11.010;2023-03-14T13:25:09;5.60;49.90
39655;DHT22;25336;59.944;11.010;2023-03-14T13:27:35;5.70;49.90
39655;DHT22;25336;59.944;11.010;2023-03-14T13:30:23;5.70;50.20
39655;DHT22;25336;59.944;11.010;2023-03-14T13:32:50;5.70;49.70
39655;DHT22;25336;59.944;11.010;2023-03-14T13:35:22;5.70;50.10
39655;DHT22;25336;59.944;11.010;2023-03-14T13:37:54;5.80;49.70
39655;DHT22;25336;59.944;11.010;2023-03-14T13:40:25;5.70;50.00
39655;DHT22;25336;59.944;11.010;2023-03-14T13:43:03;5.80;50.40
39655;DHT22;25336;59.944;11.010;2023-03-14T13:45:29;5.80;50.20
39655;DHT22;25336;59.944;11.010;2023-03-14T13:47:55;5.80;50.30
39655;DHT22;25336;59.944;11.010;2023-03-14T13:50:21;5.90;49.90
39655;DHT22;25336;59.944;11.010;2023-03-14T13:52:46;5.90;50.20
39655;DHT22;25336;59.944;11.010;2023-03-14T13:55:16;6.80;50.60
39655;DHT22;25336;59.944;11.010;2023-03-14T13:57:50;5.90;50.20
39655;DHT22;25336;59.944;11.010;2023-03-14T14:00:29;6.50;50.40
39655;DHT22;25336;59.944;11.010;2023-03-14T14:02:57;6.00;49.90
39655;DHT22;25336;59.944;11.010;2023-03-14T14:05:26;6.00;50.10
39655;DHT22;25336;59.944;11.010;2023-03-14T14:07:52;6.10;50.20
39655;DHT22;25336;59.944;11.010;2023-03-14T14:10:18;6.10;50.20
39655;DHT22;25336;59.944;11.010;2023-03-14T14:12:57;6.10;50.20
39655;DHT22;25336;59.944;11.010;2023-03-14T14:15:30;6.20;49.90
39655;DHT22;25336;59.944;11.010;2023-03-14T14:18:01;6.20;50.20
39655;DHT22;25336;59.944;11.010;2023-03-14T14:20:47;6.20;50.00
39655;DHT22;25336;59.944;11.010;2023-03-14T14:23:17;6.20;49.70
39655;DHT22;25336;59.944;11.010;2023-03-14T14:25:45;6.30;50.00
39655;DHT22;25336;59.944;11.010;2023-03-14T14:28:31;6.30;49.80
39655;DHT22;25336;59.944;11.010;2023-03-14T14:33:39;6.30;49.30
39655;DHT22;25336;59.944;11.010;2023-03-14T14:36:19;6.40;49.40
39655;DHT22;25336;59.944;11.010;2023-03-14T14:38:53;6.40;49.40
39655;DHT22;25336;59.944;11.010;2023-03-14T14:41:20;6.40;49.50
39655;DHT22;25336;59.944;11.010;2023-03-14T14:43:46;6.40;49.20
39655;DHT22;25336;59.944;11.010;2023-03-14T14:46:17;6.40;49.40
39655;DHT22;25336;59.944;11.010;2023-03-14T14:48:42;6.50;49.00
39655;DHT22;25336;59.944;11.010;2023-03-14T14:51:08;6.50;49.10
39655;DHT22;25336;59.944;11.010;2023-03-14T14:53:40;6.50;49.30
39655;DHT22;25336;59.944;11.010;2023-03-14T14:56:27;6.50;49.10
39655;DHT22;25336;59.944;11.010;2023-03-14T14:59:00;6.50;48.70
39655;DHT22;25336;59.944;11.010;2023-03-14T15:01:33;6.50;48.60
39655;DHT22;25336;59.944;11.010;2023-03-14T15:03:59;6.50;48.80
39655;DHT22;25336;59.944;11.010;2023-03-14T15:06:28;6.60;49.00
39655;DHT22;25336;59.944;11.010;2023-03-14T15:08:54;6.60;49.00
39655;DHT22;25336;59.944;11.010;2023-03-14T15:11:25;6.60;49.00
39655;DHT22;25336;59.944;11.010;2023-03-14T15:13:51;6.60;49.00
39655;DHT22;25336;59.944;11.010;2023-03-14T15:16:22;6.60;49.70
39655;DHT22;25336;59.944;11.010;2023-03-14T15:18:53;6.60;49.00
39655;DHT22;25336;59.944;11.010;2023-03-14T15:21:20;6.60;49.00
39655;DHT22;25336;59.944;11.010;2023-03-14T15:23:46;6.60;49.00
39655;DHT22;25336;59.944;11.010;2023-03-14T15:26:15;6.60;49.20
39655;DHT22;25336;59.944;11.010;2023-03-14T15:28:41;6.60;48.70
39655;DHT22;25336;59.944;11.010;2023-03-14T15:31:09;6.60;48.40
39655;DHT22;25336;59.944;11.010;2023-03-14T15:33:35;6.50;48.60
39655;DHT22;25336;59.944;11.010;2023-03-14T15:36:01;6.50;48.60
39655;DHT22;25336;59.944;11.010;2023-03-14T15:38:26;6.50;48.50
39655;DHT22;25336;59.944;11.010;2023-03-14T15:40:52;6.50;48.60
39655;DHT22;25336;59.944;11.010;2023-03-14T15:43:19;6.40;48.60
39655;DHT22;25336;59.944;11.010;2023-03-14T15:45:45;7.30;48.80
39655;DHT22;25336;59.944;11.010;2023-03-14T15:48:19;6.40;48.70
39655;DHT22;25336;59.944;11.010;2023-03-14T15:50:45;6.40;48.50
39655;DHT22;25336;59.944;11.010;2023-03-14T15:53:12;6.30;48.90
39655;DHT22;25336;59.944;11.010;2023-03-14T15:55:37;6.30;49.10
39655;DHT22;25336;59.944;11.010;2023-03-14T15:58:03;6.30;49.20
39655;DHT22;25336;59.944;11.010;2023-03-14T16:00:30;6.30;49.40
39655;DHT22;25336;59.944;11.010;2023-03-14T16:02:56;6.30;49.40
39655;DHT22;25336;59.944;11.010;2023-03-14T16:05:21;6.20;49.60
39655;DHT22;25336;59.944;11.010;2023-03-14T16:07:47;6.20;49.50
39655;DHT22;25336;59.944;11.010;2023-03-14T16:10:14;6.20;49.70
39655;DHT22;25336;59.944;11.010;2023-03-14T16:12:41;6.20;49.70
39655;DHT22;25336;59.944;11.010;2023-03-14T16:15:08;6.10;49.80
39655;DHT22;25336;59.944;11.010;2023-03-14T16:17:34;6.10;49.90
39655;DHT22;25336;59.944;11.010;2023-03-14T16:20:00;6.10;49.90
39655;DHT22;25336;59.944;11.010;2023-03-14T16:22:26;6.10;49.90
39655;DHT22;25336;59.944;11.010;2023-03-14T16:24:51;6.10;50.00
39655;DHT22;25336;59.944;11.010;2023-03-14T16:27:17;6.00;50.00
39655;DHT22;25336;59.944;11.010;2023-03-14T16:29:43;6.00;50.10
39655;DHT22;25336;59.944;11.010;2023-03-14T16:32:08;6.00;50.10
39655;DHT22;25336;59.944;11.010;2023-03-14T16:34:38;5.90;50.20
39655;DHT22;25336;59.944;11.010;2023-03-14T16:37:04;5.90;50.30